sensor_id;sensor_type;location;lat;lon;timestamp;pressure;altitude;pressure_sealevel;temperature;humidity
70206;BME280;57593;55.896;37.396;2022-09-27T00:00:14;99072.38;;;6.29;100.00
70206;BME280;57593;55.896;37.396;2022-09-27T00:00:45;99069.13;;;6.24;100.00
70206;BME280;57593;55.896;37.396;2022-09-27T00:01:16;99070.81;;;6.20;100.00
70206;BME280;57593;55.896;37.396;2022-09-27T00:01:47;99071.59;;;6.11;100.00
70206;BME280;57593;55.896;37.396;2022-09-27T00:02:17;99066.78;;;6.14;100.00
70206;BME280;57593;55.896;37.396;2022-09-27T00:02:48;99070.81;;;6.20;100.00
70206;BME280;57593;55.896;37.396;2022-09-27T00:03:18;99070.06;;;6.28;100.00
70206;BME280;57593;55.896;37.396;2022-09-27T00:03:52;99073.47;;;6.28;100.00
70206;BME280;57593;55.896;37.396;2022-09-27T00:04:24;99069.91;;;6.33;100.00
70206;BME280;57593;55.896;37.396;2022-09-27T00:04:55;99069.28;;;6.27;100.00
70206;BME280;57593;55.896;37.396;2022-09-27T00:05:28;99070.50;;;6.13;100.00
70206;BME280;57593;55.896;37.396;2022-09-27T00:06:13;99073.63;;;6.23;100.00
70206;BME280;57593;55.896;37.396;2022-09-27T00:06:44;99077.00;;;6.24;100.00
70206;BME280;57593;55.896;37.396;2022-09-27T00:07:15;99079.28;;;6.17;100.00
70206;BME280;57593;55.896;37.396;2022-09-27T00:07:46;99073.59;;;6.15;100.00
70206;BME280;57593;55.896;37.396;2022-09-27T00:08:16;99068.03;;;6.16;100.00
70206;BME280;57593;55.896;37.396;2022-09-27T00:08:49;99074.22;;;6.29;100.00
70206;BME280;57593;55.896;37.396;2022-09-27T00:09:20;99073.75;;;6.36;100.00
70206;BME280;57593;55.896;37.396;2022-09-27T00:09:50;99075.31;;;6.37;100.00
70206;BME280;57593;55.896;37.396;2022-09-27T00:10:21;99077.78;;;6.33;100.00
70206;BME280;57593;55.896;37.396;2022-09-27T00:10:58;99079.47;;;6.29;100.00
70206;BME280;57593;55.896;37.396;2022-09-27T00:11:33;99080.69;;;6.23;100.00
70206;BME280;57593;55.896;37.396;2022-09-27T00:12:04;99072.84;;;6.32;100.00
70206;BME280;57593;55.896;37.396;2022-09-27T00:12:35;99079.63;;;6.33;100.00
70206;BME280;57593;55.896;37.396;2022-09-27T00:13:06;99082.25;;;6.24;100.00
70206;BME280;57593;55.896;37.396;2022-09-27T00:13:36;99080.06;;;6.26;100.00
70206;BME280;57593;55.896;37.396;2022-09-27T00:14:10;99082.56;;;6.22;100.00
70206;BME280;57593;55.896;37.396;2022-09-27T00:14:41;99083.94;;;6.20;100.00
70206;BME280;57593;55.896;37.396;2022-09-27T00:15:11;99075.16;;;6.16;100.00
70206;BME280;57593;55.896;37.396;2022-09-27T00:15:42;99081.00;;;6.21;100.00
70206;BME280;57593;55.896;37.396;2022-09-27T00:16:13;99068.34;;;6.15;100.00
70206;BME280;57593;55.896;37.396;2022-09-27T00:16:43;99072.34;;;6.03;100.00
70206;BME280;57593;55.896;37.396;2022-09-27T00:17:14;99069.88;;;6.07;100.00
70206;BME280;57593;55.896;37.396;2022-09-27T00:17:45;99076.84;;;6.20;100.00
70206;BME280;57593;55.896;37.396;2022-09-27T00:18:15;99080.38;;;6.24;100.00
70206;BME280;57593;55.896;37.396;2022-09-27T00:18:46;99078.69;;;6.20;100.00
70206;BME280;57593;55.896;37.396;2022-09-27T00:19:19;99072.69;;;6.28;100.00
70206;BME280;57593;55.896;37.396;2022-09-27T00:19:51;99082.88;;;6.38;100.00
70206;BME280;57593;55.896;37.396;2022-09-27T00:20:21;99086.44;;;6.42;100.00
70206;BME280;57593;55.896;37.396;2022-09-27T00:20:52;99078.41;;;6.47;100.00
70206;BME280;57593;55.896;37.396;2022-09-27T00:21:23;99084.72;;;6.46;100.00
70206;BME280;57593;55.896;37.396;2022-09-27T00:21:53;99084.88;;;6.50;100.00
70206;BME280;57593;55.896;37.396;2022-09-27T00:22:26;99081.63;;;6.44;100.00
70206;BME280;57593;55.896;37.396;2022-09-27T00:22:56;99086.25;;;6.47;100.00
70206;BME280;57593;55.896;37.396;2022-09-27T00:23:27;99080.41;;;6.51;100.00
70206;BME280;57593;55.896;37.396;2022-09-27T00:23:58;99082.56;;;6.48;100.00
70206;BME280;57593;55.896;37.396;2022-09-27T00:24:29;99085.34;;;6.52;100.00
70206;BME280;57593;55.896;37.396;2022-09-27T00:25:01;99079.03;;;6.53;100.00
70206;BME280;57593;55.896;37.396;2022-09-27T00:25:34;99086.91;;;6.53;100.00
70206;BME280;57593;55.896;37.396;2022-09-27T00:26:07;99087.19;;;6.52;100.00
70206;BME280;57593;55.896;37.396;2022-09-27T00:26:38;99085.19;;;6.40;100.00
70206;BME280;57593;55.896;37.396;2022-09-27T00:27:09;99075.78;;;6.47;100.00
70206;BME280;57593;55.896;37.396;2022-09-27T00:27:39;99079.94;;;6.48;100.00
70206;BME280;57593;55.896;37.396;2022-09-27T00:28:10;99079.94;;;6.40;100.00
70206;BME280;57593;55.896;37.396;2022-09-27T00:28:41;99085.19;;;6.48;100.00
70206;BME280;57593;55.896;37.396;2022-09-27T00:29:14;99083.03;;;6.51;100.00
70206;BME280;57593;55.896;37.396;2022-09-27T00:29:45;99084.56;;;6.52;100.00
70206;BME280;57593;55.896;37.396;2022-09-27T00:30:17;99082.25;;;6.59;100.00
70206;BME280;57593;55.896;37.396;2022-09-27T00:30:47;99082.09;;;6.55;100.00
70206;BME280;57593;55.896;37.396;2022-09-27T00:31:26;99085.63;;;6.68;100.00
70206;BME280;57593;55.896;37.396;2022-09-27T00:31:58;99079.75;;;6.71;100.00
70206;BME280;57593;55.896;37.396;2022-09-27T00:32:29;99081.94;;;6.78;100.00
70206;BME280;57593;55.896;37.396;2022-09-27T00:33:00;99082.88;;;6.73;100.00
70206;BME280;57593;55.896;37.396;2022-09-27T00:33:31;99080.56;;;6.72;100.00
70206;BME280;57593;55.896;37.396;2022-09-27T00:34:02;99079.94;;;6.75;100.00
70206;BME280;57593;55.896;37.396;2022-09-27T00:34:33;99081.94;;;6.69;100.00
70206;BME280;57593;55.896;37.396;2022-09-27T00:35:04;99081.50;;;6.67;100.00
70206;BME280;57593;55.896;37.396;2022-09-27T00:35:35;99083.94;;;6.63;100.00
70206;BME280;57593;55.896;37.396;2022-09-27T00:36:05;99079.00;;;6.71;100.00
70206;BME280;57593;55.896;37.396;2022-09-27T00:36:36;99081.00;;;6.65;100.00
70206;BME280;57593;55.896;37.396;2022-09-27T00:37:08;99082.69;;;6.70;100.00
70206;BME280;57593;55.896;37.396;2022-09-27T00:37:38;99082.41;;;6.62;100.00
70206;BME280;57593;55.896;37.396;2022-09-27T00:38:09;99070.81;;;6.72;100.00
70206;BME280;57593;55.896;37.396;2022-09-27T00:38:41;99079.00;;;6.79;100.00
70206;BME280;57593;55.896;37.396;2022-09-27T00:39:11;99070.50;;;6.82;100.00
70206;BME280;57593;55.896;37.396;2022-09-27T00:39:42;99077.72;;;6.86;100.00
70206;BME280;57593;55.896;37.396;2022-09-27T00:40:14;99077.13;;;6.89;100.00
70206;BME280;57593;55.896;37.396;2022-09-27T00:40:45;99072.03;;;6.83;100.00
70206;BME280;57593;55.896;37.396;2022-09-27T00:41:22;99075.75;;;6.82;100.00
70206;BME280;57593;55.896;37.396;2022-09-27T00:41:54;99070.50;;;6.74;100.00
70206;BME280;57593;55.896;37.396;2022-09-27T00:42:25;99071.44;;;6.69;100.00
70206;BME280;57593;55.896;37.396;2022-09-27T00:42:55;99069.28;;;6.71;100.00
70206;BME280;57593;55.896;37.396;2022-09-27T00:43:42;99070.19;;;6.75;100.00
70206;BME280;57593;55.896;37.396;2022-09-27T00:45:15;99073.44;;;6.63;100.00
70206;BME280;57593;55.896;37.396;2022-09-27T00:45:54;99062.31;;;6.66;100.00
70206;BME280;57593;55.896;37.396;2022-09-27T00:46:37;99062.66;;;6.56;100.00
70206;BME280;57593;55.896;37.396;2022-09-27T00:47:24;99065.41;;;6.51;100.00
70206;BME280;57593;55.896;37.396;2022-09-27T00:47:59;99066.19;;;6.43;100.00
70206;BME280;57593;55.896;37.396;2022-09-27T00:48:31;99061.41;;;6.45;100.00
70206;BME280;57593;55.896;37.396;2022-09-27T00:49:19;99065.75;;;6.41;100.00
70206;BME280;57593;55.896;37.396;2022-09-27T00:50:45;99062.50;;;6.35;100.00
70206;BME280;57593;55.896;37.396;2022-09-27T00:51:19;99067.59;;;6.40;100.00
70206;BME280;57593;55.896;37.396;2022-09-27T00:51:58;99069.28;;;6.36;100.00
70206;BME280;57593;55.896;37.396;2022-09-27T00:53:14;99073.63;;;6.41;100.00
70206;BME280;57593;55.896;37.396;2022-09-27T00:53:49;99077.00;;;6.33;100.00
70206;BME280;57593;55.896;37.396;2022-09-27T00:54:23;99071.00;;;6.41;100.00
70206;BME280;57593;55.896;37.396;2022-09-27T00:55:16;99074.22;;;6.38;100.00
70206;BME280;57593;55.896;37.396;2022-09-27T00:55:53;99073.44;;;6.37;100.00
70206;BME280;57593;55.896;37.396;2022-09-27T00:56:28;99074.69;;;6.40;100.00
70206;BME280;57593;55.896;37.396;2022-09-27T00:57:01;99071.28;;;6.30;100.00
70206;BME280;57593;55.896;37.396;2022-09-27T00:57:32;99070.38;;;6.35;100.00
70206;BME280;57593;55.896;37.396;2022-09-27T00:58:03;99070.84;;;6.28;100.00
70206;BME280;57593;55.896;37.396;2022-09-27T00:58:39;99071.13;;;6.18;100.00
70206;BME280;57593;55.896;37.396;2022-09-27T00:59:39;99073.28;;;6.16;100.00
70206;BME280;57593;55.896;37.396;2022-09-27T01:00:13;99072.84;;;6.14;100.00
70206;BME280;57593;55.896;37.396;2022-09-27T01:00:47;99077.78;;;6.16;100.00
70206;BME280;57593;55.896;37.396;2022-09-27T01:01:20;99070.66;;;6.16;100.00
70206;BME280;57593;55.896;37.396;2022-09-27T01:01:52;99063.44;;;6.22;100.00
70206;BME280;57593;55.896;37.396;2022-09-27T01:02:22;99065.13;;;6.18;100.00
70206;BME280;57593;55.896;37.396;2022-09-27T01:02:54;99068.34;;;6.15;100.00
70206;BME280;57593;55.896;37.396;2022-09-27T01:04:14;99069.75;;;6.21;100.00
70206;BME280;57593;55.896;37.396;2022-09-27T01:04:48;99070.19;;;6.23;100.00
70206;BME280;57593;55.896;37.396;2022-09-27T01:05:21;99073.94;;;6.22;100.00
70206;BME280;57593;55.896;37.396;2022-09-27T01:05:54;99075.59;;;6.18;100.00
70206;BME280;57593;55.896;37.396;2022-09-27T01:06:25;99072.34;;;6.12;100.00
70206;BME280;57593;55.896;37.396;2022-09-27T01:06:55;99072.03;;;6.14;100.00
70206;BME280;57593;55.896;37.396;2022-09-27T01:07:26;99076.38;;;6.18;100.00
70206;BME280;57593;55.896;37.396;2022-09-27T01:07:56;99074.97;;;6.12;100.00
70206;BME280;57593;55.896;37.396;2022-09-27T01:08:30;99070.50;;;6.13;100.00
70206;BME280;57593;55.896;37.396;2022-09-27T01:09:00;99073.13;;;6.13;100.00
70206;BME280;57593;55.896;37.396;2022-09-27T01:09:31;99070.97;;;6.15;100.00
70206;BME280;57593;55.896;37.396;2022-09-27T01:10:04;99073.59;;;6.15;100.00
70206;BME280;57593;55.896;37.396;2022-09-27T01:10:40;99074.84;;;6.17;100.00
70206;BME280;57593;55.896;37.396;2022-09-27T01:11:24;99081.00;;;6.13;100.00
70206;BME280;57593;55.896;37.396;2022-09-27T01:15:52;99075.75;;;6.13;100.00
70206;BME280;57593;55.896;37.396;2022-09-27T01:17:42;99072.44;;;5.89;100.00
70206;BME280;57593;55.896;37.396;2022-09-27T01:18:44;99077.66;;;5.81;100.00
70206;BME280;57593;55.896;37.396;2022-09-27T01:21:34;99075.38;;;5.88;100.00
70206;BME280;57593;55.896;37.396;2022-09-27T01:22:13;99072.56;;;5.84;100.00
70206;BME280;57593;55.896;37.396;2022-09-27T01:25:06;99077.91;;;6.02;100.00
70206;BME280;57593;55.896;37.396;2022-09-27T01:28:44;99075.84;;;5.90;100.00
70206;BME280;57593;55.896;37.396;2022-09-27T01:30:39;99073.63;;;5.66;100.00
70206;BME280;57593;55.896;37.396;2022-09-27T01:31:49;99076.97;;;5.57;100.00
70206;BME280;57593;55.896;37.396;2022-09-27T01:32:30;99079.72;;;5.52;100.00
70206;BME280;57593;55.896;37.396;2022-09-27T01:33:17;99080.78;;;5.51;100.00
70206;BME280;57593;55.896;37.396;2022-09-27T01:36:54;99074.66;;;5.56;100.00
70206;BME280;57593;55.896;37.396;2022-09-27T01:38:23;99069.41;;;5.56;100.00
70206;BME280;57593;55.896;37.396;2022-09-27T01:41:55;99075.75;;;5.55;100.00
70206;BME280;57593;55.896;37.396;2022-09-27T01:42:40;99070.50;;;5.55;100.00
70206;BME280;57593;55.896;37.396;2022-09-27T01:43:22;99074.66;;;5.56;100.00
70206;BME280;57593;55.896;37.396;2022-09-27T01:46:25;99061.84;;;5.14;100.00
70206;BME280;57593;55.896;37.396;2022-09-27T01:47:17;99073.53;;;4.85;100.00
70206;BME280;57593;55.896;37.396;2022-09-27T01:48:19;99075.84;;;4.87;100.00
70206;BME280;57593;55.896;37.396;2022-09-27T01:49:07;99074.44;;;5.03;100.00
70206;BME280;57593;55.896;37.396;2022-09-27T01:50:00;99067.50;;;5.08;100.00
70206;BME280;57593;55.896;37.396;2022-09-27T01:50:37;99076.75;;;5.05;100.00
70206;BME280;57593;55.896;37.396;2022-09-27T01:51:19;99074.44;;;5.03;100.00
70206;BME280;57593;55.896;37.396;2022-09-27T01:51:57;99075.03;;;5.00;100.00
70206;BME280;57593;55.896;37.396;2022-09-27T01:52:48;99070.09;;;4.99;100.00
70206;BME280;57593;55.896;37.396;2022-09-27T01:53:30;99070.19;;;4.94;100.00
70206;BME280;57593;55.896;37.396;2022-09-27T01:54:37;99075.09;;;4.86;100.00
70206;BME280;57593;55.896;37.396;2022-09-27T01:55:31;99063.50;;;4.79;100.00
70206;BME280;57593;55.896;37.396;2022-09-27T01:56:36;99074.25;;;4.77;100.00
70206;BME280;57593;55.896;37.396;2022-09-27T01:57:21;99072.84;;;4.71;100.00
70206;BME280;57593;55.896;37.396;2022-09-27T01:58:02;99074.13;;;4.82;100.00
70206;BME280;57593;55.896;37.396;2022-09-27T01:58:41;99072.88;;;4.80;100.00
70206;BME280;57593;55.896;37.396;2022-09-27T01:59:26;99074.00;;;4.88;100.00
70206;BME280;57593;55.896;37.396;2022-09-27T02:00:18;99074.91;;;4.83;100.00
70206;BME280;57593;55.896;37.396;2022-09-27T02:00:50;99070.38;;;4.75;100.00
70206;BME280;57593;55.896;37.396;2022-09-27T02:01:26;99076.75;;;4.82;100.00
70206;BME280;57593;55.896;37.396;2022-09-27T02:02:03;99071.81;;;4.81;100.00
70206;BME280;57593;55.896;37.396;2022-09-27T02:03:08;99066.44;;;4.86;100.00
70206;BME280;57593;55.896;37.396;2022-09-27T02:03:47;99069.06;;;4.86;100.00
70206;BME280;57593;55.896;37.396;2022-09-27T02:04:54;99069.13;;;4.95;100.00
70206;BME280;57593;55.896;37.396;2022-09-27T02:05:31;99057.75;;;4.99;100.00
70206;BME280;57593;55.896;37.396;2022-09-27T02:06:19;99061.34;;;5.03;100.00
70206;BME280;57593;55.896;37.396;2022-09-27T02:06:58;99072.72;;;4.99;100.00
70206;BME280;57593;55.896;37.396;2022-09-27T02:08:03;99069.34;;;5.07;100.00
70206;BME280;57593;55.896;37.396;2022-09-27T02:09:16;99065.69;;;5.17;100.00
70206;BME280;57593;55.896;37.396;2022-09-27T02:10:14;99069.56;;;5.19;100.00
70206;BME280;57593;55.896;37.396;2022-09-27T02:10:55;99058.44;;;5.14;100.00
70206;BME280;57593;55.896;37.396;2022-09-27T02:11:27;99063.56;;;5.19;100.00
70206;BME280;57593;55.896;37.396;2022-09-27T02:12:17;99065.59;;;5.22;100.00
70206;BME280;57593;55.896;37.396;2022-09-27T02:14:45;99058.88;;;5.38;100.00
70206;BME280;57593;55.896;37.396;2022-09-27T02:15:23;99063.59;;;5.28;100.00
70206;BME280;57593;55.896;37.396;2022-09-27T02:18:55;99060.97;;;5.19;100.00
70206;BME280;57593;55.896;37.396;2022-09-27T02:21:00;99068.38;;;5.26;100.00
70206;BME280;57593;55.896;37.396;2022-09-27T02:21:42;99066.69;;;5.30;100.00
70206;BME280;57593;55.896;37.396;2022-09-27T02:23:29;99061.44;;;5.30;100.00
70206;BME280;57593;55.896;37.396;2022-09-27T02:24:12;99059.13;;;5.28;100.00
70206;BME280;57593;55.896;37.396;2022-09-27T02:24:53;99063.09;;;5.17;100.00
70206;BME280;57593;55.896;37.396;2022-09-27T02:25:43;99064.84;;;5.30;100.00
70206;BME280;57593;55.896;37.396;2022-09-27T02:26:28;99067.63;;;5.34;100.00
70206;BME280;57593;55.896;37.396;2022-09-27T02:27:11;99061.03;;;5.36;100.00
70206;BME280;57593;55.896;37.396;2022-09-27T02:27:56;99072.56;;;5.27;100.00
70206;BME280;57593;55.896;37.396;2022-09-27T02:29:20;99065.00;;;5.34;100.00
70206;BME280;57593;55.896;37.396;2022-09-27T02:30:01;99066.28;;;5.36;100.00
70206;BME280;57593;55.896;37.396;2022-09-27T02:30:37;99060.72;;;5.38;100.00
70206;BME280;57593;55.896;37.396;2022-09-27T02:31:22;99057.63;;;5.36;100.00
70206;BME280;57593;55.896;37.396;2022-09-27T02:31:53;99065.38;;;5.41;100.00
70206;BME280;57593;55.896;37.396;2022-09-27T02:32:24;99063.03;;;5.39;100.00
70206;BME280;57593;55.896;37.396;2022-09-27T02:32:55;99060.88;;;5.42;100.00
70206;BME280;57593;55.896;37.396;2022-09-27T02:33:31;99063.50;;;5.42;100.00
70206;BME280;57593;55.896;37.396;2022-09-27T02:34:08;99058.28;;;5.42;100.00
70206;BME280;57593;55.896;37.396;2022-09-27T02:34:41;99067.84;;;5.46;100.00
70206;BME280;57593;55.896;37.396;2022-09-27T02:35:22;99060.44;;;5.48;100.00
70206;BME280;57593;55.896;37.396;2022-09-27T02:35:54;99059.97;;;5.46;100.00
70206;BME280;57593;55.896;37.396;2022-09-27T02:36:25;99059.97;;;5.46;100.00
70206;BME280;57593;55.896;37.396;2022-09-27T02:36:55;99059.16;;;5.37;100.00
70206;BME280;57593;55.896;37.396;2022-09-27T02:37:26;99059.63;;;5.30;100.00
70206;BME280;57593;55.896;37.396;2022-09-27T02:37:57;99061.13;;;5.31;100.00
70206;BME280;57593;55.896;37.396;2022-09-27T02:38:28;99061.41;;;5.21;100.00
70206;BME280;57593;55.896;37.396;2022-09-27T02:38:59;99055.91;;;5.31;100.00
70206;BME280;57593;55.896;37.396;2022-09-27T02:39:32;99055.00;;;5.36;100.00
70206;BME280;57593;55.896;37.396;2022-09-27T02:40:07;99057.00;;;5.39;100.00
70206;BME280;57593;55.896;37.396;2022-09-27T02:40:44;99063.91;;;5.26;100.00
70206;BME280;57593;55.896;37.396;2022-09-27T02:41:18;99051.47;;;5.32;100.00
70206;BME280;57593;55.896;37.396;2022-09-27T02:41:49;99052.09;;;5.37;100.00
70206;BME280;57593;55.896;37.396;2022-09-27T02:42:21;99059.16;;;5.37;100.00
70206;BME280;57593;55.896;37.396;2022-09-27T02:42:52;99068.28;;;5.39;100.00
70206;BME280;57593;55.896;37.396;2022-09-27T02:43:24;99067.03;;;5.37;100.00
70206;BME280;57593;55.896;37.396;2022-09-27T02:44:06;99059.91;;;5.29;100.00
70206;BME280;57593;55.896;37.396;2022-09-27T02:44:40;99060.06;;;5.32;100.00
70206;BME280;57593;55.896;37.396;2022-09-27T02:45:13;99067.16;;;5.32;100.00
70206;BME280;57593;55.896;37.396;2022-09-27T02:47:46;99058.22;;;5.33;100.00
70206;BME280;57593;55.896;37.396;2022-09-27T02:53:53;99072.06;;;5.25;100.00
70206;BME280;57593;55.896;37.396;2022-09-27T02:55:55;99078.53;;;5.27;100.00
70206;BME280;57593;55.896;37.396;2022-09-27T02:56:56;99074.72;;;5.33;100.00
70206;BME280;57593;55.896;37.396;2022-09-27T02:59:49;99066.44;;;5.40;100.00
70206;BME280;57593;55.896;37.396;2022-09-27T03:00:51;99075.50;;;5.34;100.00
70206;BME280;57593;55.896;37.396;2022-09-27T03:05:16;99079.53;;;5.40;100.00
70206;BME280;57593;55.896;37.396;2022-09-27T03:06:33;99072.84;;;5.25;100.00
70206;BME280;57593;55.896;37.396;2022-09-27T03:07:06;99077.66;;;5.32;100.00
70206;BME280;57593;55.896;37.396;2022-09-27T03:07:37;99081.50;;;5.34;100.00
70206;BME280;57593;55.896;37.396;2022-09-27T03:08:11;99075.84;;;5.41;100.00
70206;BME280;57593;55.896;37.396;2022-09-27T03:08:43;99082.44;;;5.38;100.00
70206;BME280;57593;55.896;37.396;2022-09-27T03:09:22;99080.47;;;5.44;100.00
70206;BME280;57593;55.896;37.396;2022-09-27T03:09:54;99086.31;;;5.41;100.00
70206;BME280;57593;55.896;37.396;2022-09-27T03:10:27;99072.31;;;5.46;100.00
70206;BME280;57593;55.896;37.396;2022-09-27T03:10:58;99081.97;;;5.36;100.00
70206;BME280;57593;55.896;37.396;2022-09-27T03:11:29;99076.75;;;5.36;100.00
70206;BME280;57593;55.896;37.396;2022-09-27T03:12:00;99084.16;;;5.43;100.00
70206;BME280;57593;55.896;37.396;2022-09-27T03:12:31;99076.31;;;5.43;100.00
70206;BME280;57593;55.896;37.396;2022-09-27T03:13:02;99074.63;;;5.47;100.00
70206;BME280;57593;55.896;37.396;2022-09-27T03:13:34;99074.34;;;5.49;100.00
70206;BME280;57593;55.896;37.396;2022-09-27T03:14:09;99082.66;;;5.51;100.00
70206;BME280;57593;55.896;37.396;2022-09-27T03:14:47;99089.31;;;5.57;100.00
70206;BME280;57593;55.896;37.396;2022-09-27T03:15:44;99087.50;;;5.66;100.00
70206;BME280;57593;55.896;37.396;2022-09-27T03:16:33;99080.84;;;5.60;100.00
70206;BME280;57593;55.896;37.396;2022-09-27T03:17:33;99086.94;;;5.47;100.00
70206;BME280;57593;55.896;37.396;2022-09-27T03:18:42;99089.56;;;5.47;100.00
70206;BME280;57593;55.896;37.396;2022-09-27T03:19:41;99087.59;;;5.52;100.00
70206;BME280;57593;55.896;37.396;2022-09-27T03:20:35;99085.41;;;5.46;100.00
70206;BME280;57593;55.896;37.396;2022-09-27T03:21:14;99089.53;;;5.38;100.00
70206;BME280;57593;55.896;37.396;2022-09-27T03:21:44;99083.69;;;5.41;100.00
70206;BME280;57593;55.896;37.396;2022-09-27T03:22:15;99082.00;;;5.45;100.00
70206;BME280;57593;55.896;37.396;2022-09-27T03:22:46;99086.78;;;5.43;100.00
70206;BME280;57593;55.896;37.396;2022-09-27T03:23:17;99090.75;;;5.32;100.00
70206;BME280;57593;55.896;37.396;2022-09-27T03:23:48;99087.31;;;5.22;100.00
70206;BME280;57593;55.896;37.396;2022-09-27T03:24:20;99083.34;;;5.34;100.00
70206;BME280;57593;55.896;37.396;2022-09-27T03:24:51;99092.75;;;5.35;100.00
70206;BME280;57593;55.896;37.396;2022-09-27T03:25:22;99092.38;;;5.50;100.00
70206;BME280;57593;55.896;37.396;2022-09-27T03:25:52;99092.38;;;5.59;100.00
70206;BME280;57593;55.896;37.396;2022-09-27T03:26:24;99090.25;;;5.61;100.00
70206;BME280;57593;55.896;37.396;2022-09-27T03:26:55;99089.94;;;5.63;100.00
70206;BME280;57593;55.896;37.396;2022-09-27T03:27:25;99093.47;;;5.58;100.00
70206;BME280;57593;55.896;37.396;2022-09-27T03:27:56;99082.84;;;5.63;100.00
70206;BME280;57593;55.896;37.396;2022-09-27T03:28:27;99088.09;;;5.63;100.00
70206;BME280;57593;55.896;37.396;2022-09-27T03:28:59;99087.19;;;5.68;100.00
70206;BME280;57593;55.896;37.396;2022-09-27T03:29:30;99086.88;;;5.69;100.00
70206;BME280;57593;55.896;37.396;2022-09-27T03:30:11;99089.06;;;5.76;100.00
70206;BME280;57593;55.896;37.396;2022-09-27T03:30:44;99080.88;;;5.78;100.00
70206;BME280;57593;55.896;37.396;2022-09-27T03:31:17;99083.34;;;5.74;100.00
70206;BME280;57593;55.896;37.396;2022-09-27T03:31:55;99078.72;;;5.80;100.00
70206;BME280;57593;55.896;37.396;2022-09-27T03:32:44;99095.09;;;5.76;100.00
70206;BME280;57593;55.896;37.396;2022-09-27T03:33:33;99091.66;;;5.76;100.00
70206;BME280;57593;55.896;37.396;2022-09-27T03:34:09;99084.72;;;5.71;100.00
70206;BME280;57593;55.896;37.396;2022-09-27T03:34:39;99087.97;;;5.77;100.00
70206;BME280;57593;55.896;37.396;2022-09-27T03:35:11;99093.38;;;5.72;100.00
70206;BME280;57593;55.896;37.396;2022-09-27T03:35:43;99091.66;;;5.67;100.00
70206;BME280;57593;55.896;37.396;2022-09-27T03:36:13;99086.22;;;5.55;100.00
70206;BME280;57593;55.896;37.396;2022-09-27T03:36:44;99092.06;;;5.61;100.00
70206;BME280;57593;55.896;37.396;2022-09-27T03:37:15;99087.63;;;5.61;100.00
70206;BME280;57593;55.896;37.396;2022-09-27T03:37:45;99085.31;;;5.68;100.00
70206;BME280;57593;55.896;37.396;2022-09-27T03:38:17;99084.72;;;5.71;100.00
70206;BME280;57593;55.896;37.396;2022-09-27T03:38:48;99090.91;;;5.75;100.00
70206;BME280;57593;55.896;37.396;2022-09-27T03:39:21;99091.06;;;5.70;100.00
70206;BME280;57593;55.896;37.396;2022-09-27T03:39:52;99088.75;;;5.78;100.00
70206;BME280;57593;55.896;37.396;2022-09-27T03:40:23;99082.91;;;5.81;100.00
70206;BME280;57593;55.896;37.396;2022-09-27T03:40:53;99090.59;;;5.77;100.00
70206;BME280;57593;55.896;37.396;2022-09-27T03:41:24;99089.81;;;5.68;100.00
70206;BME280;57593;55.896;37.396;2022-09-27T03:41:56;99088.91;;;5.81;100.00
70206;BME280;57593;55.896;37.396;2022-09-27T03:42:26;99087.69;;;5.87;100.00
70206;BME280;57593;55.896;37.396;2022-09-27T03:42:57;99080.78;;;5.91;100.00
70206;BME280;57593;55.896;37.396;2022-09-27T03:43:30;99085.09;;;5.96;100.00
70206;BME280;57593;55.896;37.396;2022-09-27T03:44:06;99089.88;;;5.94;100.00
70206;BME280;57593;55.896;37.396;2022-09-27T03:44:37;99085.41;;;5.94;100.00
70206;BME280;57593;55.896;37.396;2022-09-27T03:45:08;99086.31;;;5.90;100.00
70206;BME280;57593;55.896;37.396;2022-09-27T03:45:39;99089.09;;;5.85;100.00
70206;BME280;57593;55.896;37.396;2022-09-27T03:46:13;99088.19;;;5.89;100.00
70206;BME280;57593;55.896;37.396;2022-09-27T03:46:43;99089.25;;;5.88;100.00
70206;BME280;57593;55.896;37.396;2022-09-27T03:47:14;99088.91;;;5.81;100.00
70206;BME280;57593;55.896;37.396;2022-09-27T03:47:45;99092.00;;;5.83;100.00
70206;BME280;57593;55.896;37.396;2022-09-27T03:48:16;99093.06;;;5.73;100.00
70206;BME280;57593;55.896;37.396;2022-09-27T03:48:47;99099.84;;;5.74;100.00
70206;BME280;57593;55.896;37.396;2022-09-27T03:49:17;99098.16;;;5.87;100.00
70206;BME280;57593;55.896;37.396;2022-09-27T03:49:49;99095.31;;;5.98;100.00
70206;BME280;57593;55.896;37.396;2022-09-27T03:50:19;99098.09;;;6.01;100.00
70206;BME280;57593;55.896;37.396;2022-09-27T03:50:50;99103.03;;;6.03;100.00
70206;BME280;57593;55.896;37.396;2022-09-27T03:51:21;99097.66;;;6.08;100.00
70206;BME280;57593;55.896;37.396;2022-09-27T03:51:52;99107.19;;;6.04;100.00
70206;BME280;57593;55.896;37.396;2022-09-27T03:52:22;99105.97;;;6.10;100.00
70206;BME280;57593;55.896;37.396;2022-09-27T03:52:53;99103.38;;;6.19;100.00
70206;BME280;57593;55.896;37.396;2022-09-27T03:53:25;99103.22;;;6.24;100.00
70206;BME280;57593;55.896;37.396;2022-09-27T03:53:56;99097.06;;;6.28;100.00
70206;BME280;57593;55.896;37.396;2022-09-27T03:54:26;99103.53;;;6.22;100.00
70206;BME280;57593;55.896;37.396;2022-09-27T03:54:57;99100.94;;;6.31;100.00
70206;BME280;57593;55.896;37.396;2022-09-27T03:55:28;99107.25;;;6.30;100.00
70206;BME280;57593;55.896;37.396;2022-09-27T03:55:59;99105.09;;;6.32;100.00
70206;BME280;57593;55.896;37.396;2022-09-27T03:56:30;99105.84;;;6.33;100.00
70206;BME280;57593;55.896;37.396;2022-09-27T03:57:00;99106.47;;;6.38;100.00
70206;BME280;57593;55.896;37.396;2022-09-27T03:57:31;99104.78;;;6.34;100.00
70206;BME280;57593;55.896;37.396;2022-09-27T03:58:02;99102.47;;;6.32;100.00
70206;BME280;57593;55.896;37.396;2022-09-27T03:58:33;99105.09;;;6.32;100.00